sensor_id;sensor_type;location;lat;lon;timestamp;P1;durP1;ratioP1;P2;durP2;ratioP2
59571;SDS011;59406;45.602;11.904;2022-10-16T00:01:08;51.60;;;27.90;;
59571;SDS011;59406;45.602;11.904;2022-10-16T00:03:37;39.38;;;21.90;;
59571;SDS011;59406;45.602;11.904;2022-10-16T00:06:05;36.22;;;21.27;;
59571;SDS011;59406;45.602;11.904;2022-10-16T00:08:31;44.43;;;25.17;;
59571;SDS011;59406;45.602;11.904;2022-10-16T00:10:59;47.75;;;25.65;;
59571;SDS011;59406;45.602;11.904;2022-10-16T00:13:27;46.28;;;25.10;;
59571;SDS011;59406;45.602;11.904;2022-10-16T00:15:54;41.35;;;22.83;;
59571;SDS011;59406;45.602;11.904;2022-10-16T00:18:21;36.47;;;20.83;;
59571;SDS011;59406;45.602;11.904;2022-10-16T00:20:48;32.73;;;18.50;;
59571;SDS011;59406;45.602;11.904;2022-10-16T00:23:14;36.97;;;19.75;;
59571;SDS011;59406;45.602;11.904;2022-10-16T00:25:39;34.80;;;19.27;;
59571;SDS011;59406;45.602;11.904;2022-10-16T00:28:05;33.30;;;18.77;;
59571;SDS011;59406;45.602;11.904;2022-10-16T00:30:31;35.25;;;19.55;;
59571;SDS011;59406;45.602;11.904;2022-10-16T00:32:57;35.28;;;19.40;;
59571;SDS011;59406;45.602;11.904;2022-10-16T00:35:23;34.83;;;18.88;;
59571;SDS011;59406;45.602;11.904;2022-10-16T00:37:49;31.27;;;17.43;;
59571;SDS011;59406;45.602;11.904;2022-10-16T00:40:15;43.92;;;25.20;;
59571;SDS011;59406;45.602;11.904;2022-10-16T00:42:41;44.55;;;25.63;;
59571;SDS011;59406;45.602;11.904;2022-10-16T00:45:08;44.07;;;23.13;;
59571;SDS011;59406;45.602;11.904;2022-10-16T00:47:36;36.38;;;20.80;;
59571;SDS011;59406;45.602;11.904;2022-10-16T00:50:08;35.95;;;21.27;;
59571;SDS011;59406;45.602;11.904;2022-10-16T00:52:56;33.15;;;18.63;;
59571;SDS011;59406;45.602;11.904;2022-10-16T00:55:24;35.95;;;20.80;;
59571;SDS011;59406;45.602;11.904;2022-10-16T00:57:50;31.53;;;17.93;;
59571;SDS011;59406;45.602;11.904;2022-10-16T01:00:21;47.45;;;26.38;;
59571;SDS011;59406;45.602;11.904;2022-10-16T01:02:57;34.17;;;20.55;;
59571;SDS011;59406;45.602;11.904;2022-10-16T01:05:27;27.48;;;17.15;;
59571;SDS011;59406;45.602;11.904;2022-10-16T01:13:10;29.50;;;16.65;;
59571;SDS011;59406;45.602;11.904;2022-10-16T01:18:16;31.33;;;18.15;;
59571;SDS011;59406;45.602;11.904;2022-10-16T01:20:59;37.53;;;20.23;;
59571;SDS011;59406;45.602;11.904;2022-10-16T01:23:48;31.53;;;18.20;;
59571;SDS011;59406;45.602;11.904;2022-10-16T01:32:01;28.45;;;14.90;;
59571;SDS011;59406;45.602;11.904;2022-10-16T01:34:42;42.20;;;23.20;;
59571;SDS011;59406;45.602;11.904;2022-10-16T01:37:15;28.83;;;16.67;;
59571;SDS011;59406;45.602;11.904;2022-10-16T01:39:46;31.08;;;18.08;;
59571;SDS011;59406;45.602;11.904;2022-10-16T01:42:19;35.17;;;19.58;;
59571;SDS011;59406;45.602;11.904;2022-10-16T01:44:48;42.67;;;24.85;;
59571;SDS011;59406;45.602;11.904;2022-10-16T01:47:17;31.60;;;18.80;;
59571;SDS011;59406;45.602;11.904;2022-10-16T01:49:46;37.73;;;20.20;;
59571;SDS011;59406;45.602;11.904;2022-10-16T01:52:14;29.40;;;17.45;;
59571;SDS011;59406;45.602;11.904;2022-10-16T01:54:45;46.72;;;23.42;;
59571;SDS011;59406;45.602;11.904;2022-10-16T01:57:14;35.53;;;18.98;;
59571;SDS011;59406;45.602;11.904;2022-10-16T01:59:45;38.40;;;21.40;;
59571;SDS011;59406;45.602;11.904;2022-10-16T02:02:15;58.03;;;30.23;;
59571;SDS011;59406;45.602;11.904;2022-10-16T02:04:46;39.90;;;21.58;;
59571;SDS011;59406;45.602;11.904;2022-10-16T02:07:24;39.08;;;21.45;;
59571;SDS011;59406;45.602;11.904;2022-10-16T02:09:50;46.47;;;25.10;;
59571;SDS011;59406;45.602;11.904;2022-10-16T02:12:29;46.30;;;24.80;;
59571;SDS011;59406;45.602;11.904;2022-10-16T02:14:59;44.83;;;24.23;;
59571;SDS011;59406;45.602;11.904;2022-10-16T02:17:25;45.33;;;24.60;;
59571;SDS011;59406;45.602;11.904;2022-10-16T02:19:52;41.47;;;22.40;;
59571;SDS011;59406;45.602;11.904;2022-10-16T02:24:57;69.97;;;36.37;;
59571;SDS011;59406;45.602;11.904;2022-10-16T02:27:35;48.08;;;25.63;;
59571;SDS011;59406;45.602;11.904;2022-10-16T02:32:47;62.22;;;30.25;;
59571;SDS011;59406;45.602;11.904;2022-10-16T02:35:18;70.88;;;35.15;;
59571;SDS011;59406;45.602;11.904;2022-10-16T02:37:47;52.90;;;27.30;;
59571;SDS011;59406;45.602;11.904;2022-10-16T02:40:15;71.18;;;37.20;;
59571;SDS011;59406;45.602;11.904;2022-10-16T02:42:42;50.88;;;27.50;;
59571;SDS011;59406;45.602;11.904;2022-10-16T02:45:09;44.85;;;23.67;;
59571;SDS011;59406;45.602;11.904;2022-10-16T02:47:36;44.33;;;23.73;;
59571;SDS011;59406;45.602;11.904;2022-10-16T02:50:02;41.83;;;22.90;;
59571;SDS011;59406;45.602;11.904;2022-10-16T02:52:29;39.38;;;20.83;;
59571;SDS011;59406;45.602;11.904;2022-10-16T02:54:55;34.95;;;19.48;;
59571;SDS011;59406;45.602;11.904;2022-10-16T02:57:20;34.13;;;18.47;;
59571;SDS011;59406;45.602;11.904;2022-10-16T02:59:46;34.78;;;19.58;;
59571;SDS011;59406;45.602;11.904;2022-10-16T03:02:12;38.90;;;21.47;;
59571;SDS011;59406;45.602;11.904;2022-10-16T03:04:38;37.88;;;20.30;;
59571;SDS011;59406;45.602;11.904;2022-10-16T03:07:03;37.37;;;19.63;;
59571;SDS011;59406;45.602;11.904;2022-10-16T03:09:29;32.40;;;18.43;;
59571;SDS011;59406;45.602;11.904;2022-10-16T03:11:55;41.65;;;22.42;;
59571;SDS011;59406;45.602;11.904;2022-10-16T03:14:21;38.93;;;19.37;;
59571;SDS011;59406;45.602;11.904;2022-10-16T03:16:47;37.67;;;20.88;;
59571;SDS011;59406;45.602;11.904;2022-10-16T03:19:12;40.57;;;23.27;;
59571;SDS011;59406;45.602;11.904;2022-10-16T03:21:38;46.77;;;24.97;;
59571;SDS011;59406;45.602;11.904;2022-10-16T03:24:04;43.90;;;23.60;;
59571;SDS011;59406;45.602;11.904;2022-10-16T03:26:30;44.25;;;24.42;;
59571;SDS011;59406;45.602;11.904;2022-10-16T03:28:56;58.07;;;30.40;;
59571;SDS011;59406;45.602;11.904;2022-10-16T03:31:22;62.17;;;33.30;;
59571;SDS011;59406;45.602;11.904;2022-10-16T03:33:47;55.97;;;32.10;;
59571;SDS011;59406;45.602;11.904;2022-10-16T03:36:13;70.22;;;36.88;;
59571;SDS011;59406;45.602;11.904;2022-10-16T03:38:39;69.97;;;39.07;;
59571;SDS011;59406;45.602;11.904;2022-10-16T03:41:05;87.28;;;47.00;;
59571;SDS011;59406;45.602;11.904;2022-10-16T03:43:32;64.43;;;35.90;;
59571;SDS011;59406;45.602;11.904;2022-10-16T03:45:59;79.13;;;44.03;;
59571;SDS011;59406;45.602;11.904;2022-10-16T03:48:24;84.82;;;45.10;;
59571;SDS011;59406;45.602;11.904;2022-10-16T03:50:50;73.38;;;40.70;;
59571;SDS011;59406;45.602;11.904;2022-10-16T03:53:17;75.65;;;41.83;;
59571;SDS011;59406;45.602;11.904;2022-10-16T03:55:43;65.80;;;34.33;;
59571;SDS011;59406;45.602;11.904;2022-10-16T03:58:09;69.47;;;37.47;;
59571;SDS011;59406;45.602;11.904;2022-10-16T04:00:39;87.25;;;45.83;;
59571;SDS011;59406;45.602;11.904;2022-10-16T04:03:07;81.63;;;43.00;;
59571;SDS011;59406;45.602;11.904;2022-10-16T04:05:32;85.78;;;45.92;;
59571;SDS011;59406;45.602;11.904;2022-10-16T04:07:59;76.97;;;40.60;;
59571;SDS011;59406;45.602;11.904;2022-10-16T04:10:25;65.65;;;35.67;;
59571;SDS011;59406;45.602;11.904;2022-10-16T04:12:51;77.47;;;39.95;;
59571;SDS011;59406;45.602;11.904;2022-10-16T04:15:19;83.10;;;44.85;;
59571;SDS011;59406;45.602;11.904;2022-10-16T04:17:46;79.77;;;42.13;;
59571;SDS011;59406;45.602;11.904;2022-10-16T04:20:12;69.20;;;37.92;;
59571;SDS011;59406;45.602;11.904;2022-10-16T04:22:38;74.70;;;40.15;;
59571;SDS011;59406;45.602;11.904;2022-10-16T04:25:04;71.60;;;38.25;;
59571;SDS011;59406;45.602;11.904;2022-10-16T04:27:30;74.50;;;38.10;;
59571;SDS011;59406;45.602;11.904;2022-10-16T04:30:00;82.60;;;44.00;;
59571;SDS011;59406;45.602;11.904;2022-10-16T04:32:26;71.03;;;38.75;;
59571;SDS011;59406;45.602;11.904;2022-10-16T04:34:52;81.60;;;40.58;;
59571;SDS011;59406;45.602;11.904;2022-10-16T04:37:19;65.68;;;36.33;;
59571;SDS011;59406;45.602;11.904;2022-10-16T04:39:48;53.80;;;28.55;;
59571;SDS011;59406;45.602;11.904;2022-10-16T04:42:14;50.90;;;26.17;;
59571;SDS011;59406;45.602;11.904;2022-10-16T04:44:40;65.15;;;30.58;;
59571;SDS011;59406;45.602;11.904;2022-10-16T04:47:06;62.25;;;32.80;;
59571;SDS011;59406;45.602;11.904;2022-10-16T04:49:32;41.10;;;23.50;;
59571;SDS011;59406;45.602;11.904;2022-10-16T04:51:58;59.80;;;31.73;;
59571;SDS011;59406;45.602;11.904;2022-10-16T04:54:24;42.30;;;22.98;;
59571;SDS011;59406;45.602;11.904;2022-10-16T04:56:49;47.33;;;25.53;;
59571;SDS011;59406;45.602;11.904;2022-10-16T04:59:17;61.28;;;31.70;;
59571;SDS011;59406;45.602;11.904;2022-10-16T05:01:44;45.05;;;25.48;;
59571;SDS011;59406;45.602;11.904;2022-10-16T05:04:11;40.72;;;21.60;;
59571;SDS011;59406;45.602;11.904;2022-10-16T05:06:37;41.47;;;21.48;;
59571;SDS011;59406;45.602;11.904;2022-10-16T05:09:04;39.03;;;21.37;;
59571;SDS011;59406;45.602;11.904;2022-10-16T05:11:30;44.88;;;23.48;;
59571;SDS011;59406;45.602;11.904;2022-10-16T05:13:57;42.20;;;22.33;;
59571;SDS011;59406;45.602;11.904;2022-10-16T05:16:22;41.72;;;21.85;;
59571;SDS011;59406;45.602;11.904;2022-10-16T05:18:48;56.03;;;29.07;;
59571;SDS011;59406;45.602;11.904;2022-10-16T05:21:16;52.40;;;26.58;;
59571;SDS011;59406;45.602;11.904;2022-10-16T05:23:41;44.88;;;22.77;;
59571;SDS011;59406;45.602;11.904;2022-10-16T05:26:07;57.97;;;30.80;;
59571;SDS011;59406;45.602;11.904;2022-10-16T05:28:33;68.97;;;34.00;;
59571;SDS011;59406;45.602;11.904;2022-10-16T05:30:59;60.60;;;30.20;;
59571;SDS011;59406;45.602;11.904;2022-10-16T05:33:32;47.40;;;22.92;;
59571;SDS011;59406;45.602;11.904;2022-10-16T05:36:03;49.15;;;24.85;;
59571;SDS011;59406;45.602;11.904;2022-10-16T05:38:32;42.97;;;23.70;;
59571;SDS011;59406;45.602;11.904;2022-10-16T05:40:58;50.05;;;25.20;;
59571;SDS011;59406;45.602;11.904;2022-10-16T05:43:24;45.73;;;23.03;;
59571;SDS011;59406;45.602;11.904;2022-10-16T05:45:55;45.50;;;24.05;;
59571;SDS011;59406;45.602;11.904;2022-10-16T05:48:23;49.42;;;25.27;;
59571;SDS011;59406;45.602;11.904;2022-10-16T05:51:02;48.15;;;25.70;;
59571;SDS011;59406;45.602;11.904;2022-10-16T05:53:31;53.28;;;26.98;;
59571;SDS011;59406;45.602;11.904;2022-10-16T05:55:59;51.07;;;26.50;;
59571;SDS011;59406;45.602;11.904;2022-10-16T05:58:33;65.32;;;32.90;;
59571;SDS011;59406;45.602;11.904;2022-10-16T06:01:02;42.15;;;22.42;;
59571;SDS011;59406;45.602;11.904;2022-10-16T06:03:33;40.97;;;22.25;;
59571;SDS011;59406;45.602;11.904;2022-10-16T06:05:59;38.10;;;20.80;;
59571;SDS011;59406;45.602;11.904;2022-10-16T06:08:35;39.77;;;21.10;;
59571;SDS011;59406;45.602;11.904;2022-10-16T06:11:02;37.17;;;19.52;;
59571;SDS011;59406;45.602;11.904;2022-10-16T06:13:30;35.97;;;19.70;;
59571;SDS011;59406;45.602;11.904;2022-10-16T06:15:57;37.90;;;20.48;;
59571;SDS011;59406;45.602;11.904;2022-10-16T06:18:24;34.28;;;18.13;;
59571;SDS011;59406;45.602;11.904;2022-10-16T06:20:51;33.97;;;18.60;;
59571;SDS011;59406;45.602;11.904;2022-10-16T06:23:18;35.58;;;19.20;;
59571;SDS011;59406;45.602;11.904;2022-10-16T06:25:44;39.90;;;19.52;;
59571;SDS011;59406;45.602;11.904;2022-10-16T06:28:10;46.30;;;24.57;;
59571;SDS011;59406;45.602;11.904;2022-10-16T06:30:36;49.80;;;26.43;;
59571;SDS011;59406;45.602;11.904;2022-10-16T06:33:02;39.17;;;20.38;;
59571;SDS011;59406;45.602;11.904;2022-10-16T06:35:27;43.38;;;23.35;;
59571;SDS011;59406;45.602;11.904;2022-10-16T06:37:54;39.33;;;21.57;;
59571;SDS011;59406;45.602;11.904;2022-10-16T06:40:20;43.15;;;22.70;;
59571;SDS011;59406;45.602;11.904;2022-10-16T06:42:46;45.38;;;25.77;;
59571;SDS011;59406;45.602;11.904;2022-10-16T06:45:12;39.88;;;23.33;;
59571;SDS011;59406;45.602;11.904;2022-10-16T06:47:38;34.27;;;19.20;;
59571;SDS011;59406;45.602;11.904;2022-10-16T06:50:04;42.05;;;22.15;;
59571;SDS011;59406;45.602;11.904;2022-10-16T06:52:33;45.28;;;26.60;;
59571;SDS011;59406;45.602;11.904;2022-10-16T06:54:59;54.40;;;29.83;;
59571;SDS011;59406;45.602;11.904;2022-10-16T06:57:25;44.47;;;25.33;;
59571;SDS011;59406;45.602;11.904;2022-10-16T06:59:51;48.25;;;27.17;;
59571;SDS011;59406;45.602;11.904;2022-10-16T07:02:17;60.97;;;34.20;;
59571;SDS011;59406;45.602;11.904;2022-10-16T07:04:43;61.53;;;35.22;;
59571;SDS011;59406;45.602;11.904;2022-10-16T07:07:09;46.10;;;27.47;;
59571;SDS011;59406;45.602;11.904;2022-10-16T07:09:35;58.47;;;34.50;;
59571;SDS011;59406;45.602;11.904;2022-10-16T07:12:01;62.63;;;37.13;;
59571;SDS011;59406;45.602;11.904;2022-10-16T07:14:27;51.13;;;30.63;;
59571;SDS011;59406;45.602;11.904;2022-10-16T07:16:53;54.50;;;33.05;;
59571;SDS011;59406;45.602;11.904;2022-10-16T07:19:19;62.47;;;38.28;;
59571;SDS011;59406;45.602;11.904;2022-10-16T07:21:45;49.92;;;31.92;;
59571;SDS011;59406;45.602;11.904;2022-10-16T07:24:13;54.60;;;32.50;;
59571;SDS011;59406;45.602;11.904;2022-10-16T07:26:40;54.67;;;32.47;;
59571;SDS011;59406;45.602;11.904;2022-10-16T07:29:26;47.47;;;28.00;;
59571;SDS011;59406;45.602;11.904;2022-10-16T07:31:52;56.13;;;34.20;;
59571;SDS011;59406;45.602;11.904;2022-10-16T07:34:18;44.15;;;27.80;;
59571;SDS011;59406;45.602;11.904;2022-10-16T07:36:47;52.72;;;32.35;;
59571;SDS011;59406;45.602;11.904;2022-10-16T07:39:16;46.50;;;29.90;;
59571;SDS011;59406;45.602;11.904;2022-10-16T07:41:43;54.28;;;34.17;;
59571;SDS011;59406;45.602;11.904;2022-10-16T07:44:09;54.55;;;33.78;;
59571;SDS011;59406;45.602;11.904;2022-10-16T07:46:35;62.17;;;37.63;;
59571;SDS011;59406;45.602;11.904;2022-10-16T07:49:02;61.33;;;37.00;;
59571;SDS011;59406;45.602;11.904;2022-10-16T07:51:29;57.42;;;33.58;;
59571;SDS011;59406;45.602;11.904;2022-10-16T07:53:55;56.20;;;34.78;;
59571;SDS011;59406;45.602;11.904;2022-10-16T07:56:21;49.13;;;31.63;;
59571;SDS011;59406;45.602;11.904;2022-10-16T07:58:47;40.53;;;27.27;;
59571;SDS011;59406;45.602;11.904;2022-10-16T08:01:15;65.82;;;37.75;;
59571;SDS011;59406;45.602;11.904;2022-10-16T08:03:43;52.47;;;31.85;;
59571;SDS011;59406;45.602;11.904;2022-10-16T08:06:11;52.03;;;32.08;;
59571;SDS011;59406;45.602;11.904;2022-10-16T08:08:38;58.55;;;35.78;;
59571;SDS011;59406;45.602;11.904;2022-10-16T08:11:04;52.07;;;33.17;;
59571;SDS011;59406;45.602;11.904;2022-10-16T08:13:30;54.40;;;35.22;;
59571;SDS011;59406;45.602;11.904;2022-10-16T08:15:57;59.28;;;37.97;;
59571;SDS011;59406;45.602;11.904;2022-10-16T08:18:22;52.22;;;33.75;;
59571;SDS011;59406;45.602;11.904;2022-10-16T08:20:54;48.37;;;32.30;;
59571;SDS011;59406;45.602;11.904;2022-10-16T08:23:22;53.47;;;32.70;;
59571;SDS011;59406;45.602;11.904;2022-10-16T08:25:48;43.10;;;29.77;;
59571;SDS011;59406;45.602;11.904;2022-10-16T08:28:13;51.50;;;34.70;;
59571;SDS011;59406;45.602;11.904;2022-10-16T08:30:41;40.80;;;26.70;;
59571;SDS011;59406;45.602;11.904;2022-10-16T08:33:07;49.95;;;33.05;;
59571;SDS011;59406;45.602;11.904;2022-10-16T08:35:33;52.45;;;35.00;;
59571;SDS011;59406;45.602;11.904;2022-10-16T08:37:59;47.58;;;31.88;;
59571;SDS011;59406;45.602;11.904;2022-10-16T08:40:26;52.23;;;34.83;;
59571;SDS011;59406;45.602;11.904;2022-10-16T08:51:06;37.45;;;26.08;;
59571;SDS011;59406;45.602;11.904;2022-10-16T08:56:27;50.70;;;35.22;;
59571;SDS011;59406;45.602;11.904;2022-10-16T08:58:54;41.50;;;30.35;;
59571;SDS011;59406;45.602;11.904;2022-10-16T09:01:22;47.20;;;31.30;;
59571;SDS011;59406;45.602;11.904;2022-10-16T09:06:54;56.20;;;37.57;;
59571;SDS011;59406;45.602;11.904;2022-10-16T09:09:46;48.85;;;31.65;;
59571;SDS011;59406;45.602;11.904;2022-10-16T09:20:45;47.43;;;33.17;;
59571;SDS011;59406;45.602;11.904;2022-10-16T09:23:22;48.75;;;32.35;;
59571;SDS011;59406;45.602;11.904;2022-10-16T09:25:52;40.28;;;29.40;;
59571;SDS011;59406;45.602;11.904;2022-10-16T09:28:20;43.92;;;31.85;;
59571;SDS011;59406;45.602;11.904;2022-10-16T09:30:46;34.65;;;24.75;;
59571;SDS011;59406;45.602;11.904;2022-10-16T09:33:16;47.20;;;32.20;;
59571;SDS011;59406;45.602;11.904;2022-10-16T09:35:49;40.45;;;29.75;;
59571;SDS011;59406;45.602;11.904;2022-10-16T09:38:21;33.38;;;24.50;;
59571;SDS011;59406;45.602;11.904;2022-10-16T09:40:51;49.13;;;35.47;;
59571;SDS011;59406;45.602;11.904;2022-10-16T09:43:25;47.90;;;34.70;;
59571;SDS011;59406;45.602;11.904;2022-10-16T09:46:06;35.83;;;25.63;;
59571;SDS011;59406;45.602;11.904;2022-10-16T09:48:47;38.28;;;26.60;;
59571;SDS011;59406;45.602;11.904;2022-10-16T09:51:37;31.45;;;24.60;;
59571;SDS011;59406;45.602;11.904;2022-10-16T09:56:34;40.15;;;29.00;;
59571;SDS011;59406;45.602;11.904;2022-10-16T09:59:08;42.30;;;29.57;;
59571;SDS011;59406;45.602;11.904;2022-10-16T10:01:49;41.47;;;30.63;;
59571;SDS011;59406;45.602;11.904;2022-10-16T10:04:20;41.05;;;30.65;;
59571;SDS011;59406;45.602;11.904;2022-10-16T10:06:51;27.90;;;21.75;;
59571;SDS011;59406;45.602;11.904;2022-10-16T10:12:06;36.27;;;25.70;;
59571;SDS011;59406;45.602;11.904;2022-10-16T10:14:49;37.35;;;28.55;;
59571;SDS011;59406;45.602;11.904;2022-10-16T10:17:21;41.00;;;28.75;;
59571;SDS011;59406;45.602;11.904;2022-10-16T10:27:51;34.85;;;26.27;;
59571;SDS011;59406;45.602;11.904;2022-10-16T10:30:56;31.17;;;24.17;;
59571;SDS011;59406;45.602;11.904;2022-10-16T10:36:56;30.17;;;23.35;;
59571;SDS011;59406;45.602;11.904;2022-10-16T10:39:35;37.50;;;27.03;;
59571;SDS011;59406;45.602;11.904;2022-10-16T10:42:14;32.53;;;24.52;;
59571;SDS011;59406;45.602;11.904;2022-10-16T10:45:00;32.20;;;25.33;;
59571;SDS011;59406;45.602;11.904;2022-10-16T10:50:50;26.38;;;20.58;;
59571;SDS011;59406;45.602;11.904;2022-10-16T10:53:24;26.40;;;19.93;;
59571;SDS011;59406;45.602;11.904;2022-10-16T10:56:14;32.15;;;23.05;;
59571;SDS011;59406;45.602;11.904;2022-10-16T11:04:59;27.27;;;19.80;;
59571;SDS011;59406;45.602;11.904;2022-10-16T11:07:55;35.17;;;24.93;;
59571;SDS011;59406;45.602;11.904;2022-10-16T11:19:03;26.33;;;19.67;;
59571;SDS011;59406;45.602;11.904;2022-10-16T11:21:41;21.93;;;17.10;;
59571;SDS011;59406;45.602;11.904;2022-10-16T11:24:27;39.83;;;23.48;;
59571;SDS011;59406;45.602;11.904;2022-10-16T11:27:03;24.30;;;18.05;;
59571;SDS011;59406;45.602;11.904;2022-10-16T11:29:43;26.08;;;19.23;;
59571;SDS011;59406;45.602;11.904;2022-10-16T11:32:19;30.48;;;22.15;;
59571;SDS011;59406;45.602;11.904;2022-10-16T11:34:55;29.77;;;22.53;;
59571;SDS011;59406;45.602;11.904;2022-10-16T11:37:28;29.00;;;21.42;;
59571;SDS011;59406;45.602;11.904;2022-10-16T11:40:02;31.77;;;24.70;;
59571;SDS011;59406;45.602;11.904;2022-10-16T11:42:51;33.65;;;24.88;;
59571;SDS011;59406;45.602;11.904;2022-10-16T11:45:32;27.45;;;21.50;;
59571;SDS011;59406;45.602;11.904;2022-10-16T11:51:21;23.77;;;17.90;;
59571;SDS011;59406;45.602;11.904;2022-10-16T11:57:21;32.17;;;24.95;;
59571;SDS011;59406;45.602;11.904;2022-10-16T12:08:21;30.23;;;24.80;;
59571;SDS011;59406;45.602;11.904;2022-10-16T12:10:47;29.88;;;22.90;;
59571;SDS011;59406;45.602;11.904;2022-10-16T12:18:42;29.80;;;23.73;;
59571;SDS011;59406;45.602;11.904;2022-10-16T12:21:10;23.50;;;18.35;;
59571;SDS011;59406;45.602;11.904;2022-10-16T12:23:56;26.10;;;21.63;;
59571;SDS011;59406;45.602;11.904;2022-10-16T12:26:27;22.90;;;19.10;;
59571;SDS011;59406;45.602;11.904;2022-10-16T12:29:08;31.58;;;24.73;;
59571;SDS011;59406;45.602;11.904;2022-10-16T12:31:43;25.33;;;21.48;;
59571;SDS011;59406;45.602;11.904;2022-10-16T12:34:22;26.88;;;21.42;;
59571;SDS011;59406;45.602;11.904;2022-10-16T12:36:55;25.90;;;20.10;;
59571;SDS011;59406;45.602;11.904;2022-10-16T12:39:32;30.30;;;24.00;;
59571;SDS011;59406;45.602;11.904;2022-10-16T12:42:02;29.92;;;22.50;;
59571;SDS011;59406;45.602;11.904;2022-10-16T12:44:33;21.75;;;18.02;;
59571;SDS011;59406;45.602;11.904;2022-10-16T12:47:01;31.58;;;24.35;;
59571;SDS011;59406;45.602;11.904;2022-10-16T12:51:53;31.17;;;24.70;;
59571;SDS011;59406;45.602;11.904;2022-10-16T12:54:22;26.27;;;20.00;;
59571;SDS011;59406;45.602;11.904;2022-10-16T12:57:01;23.55;;;19.08;;
59571;SDS011;59406;45.602;11.904;2022-10-16T12:59:57;25.92;;;19.45;;
59571;SDS011;59406;45.602;11.904;2022-10-16T13:21:41;28.85;;;22.80;;
59571;SDS011;59406;45.602;11.904;2022-10-16T13:30:18;23.43;;;18.63;;
59571;SDS011;59406;45.602;11.904;2022-10-16T13:33:04;28.67;;;21.10;;
59571;SDS011;59406;45.602;11.904;2022-10-16T13:35:45;26.67;;;20.38;;
59571;SDS011;59406;45.602;11.904;2022-10-16T13:38:20;25.35;;;19.42;;
59571;SDS011;59406;45.602;11.904;2022-10-16T13:41:32;33.30;;;24.67;;
59571;SDS011;59406;45.602;11.904;2022-10-16T13:43:50;23.30;;;17.90;;
59571;SDS011;59406;45.602;11.904;2022-10-16T13:46:19;30.73;;;24.05;;
59571;SDS011;59406;45.602;11.904;2022-10-16T13:48:58;27.48;;;21.23;;
59571;SDS011;59406;45.602;11.904;2022-10-16T13:51:36;24.02;;;19.00;;
59571;SDS011;59406;45.602;11.904;2022-10-16T13:54:02;24.98;;;19.83;;
59571;SDS011;59406;45.602;11.904;2022-10-16T13:56:29;26.47;;;20.90;;
59571;SDS011;59406;45.602;11.904;2022-10-16T13:59:01;30.17;;;22.40;;
59571;SDS011;59406;45.602;11.904;2022-10-16T14:01:31;21.67;;;17.75;;
59571;SDS011;59406;45.602;11.904;2022-10-16T14:04:01;22.55;;;18.10;;
59571;SDS011;59406;45.602;11.904;2022-10-16T14:06:30;21.75;;;17.00;;
59571;SDS011;59406;45.602;11.904;2022-10-16T14:11:31;30.92;;;21.85;;
59571;SDS011;59406;45.602;11.904;2022-10-16T14:13:59;31.80;;;24.25;;
59571;SDS011;59406;45.602;11.904;2022-10-16T14:16:27;19.95;;;16.35;;
59571;SDS011;59406;45.602;11.904;2022-10-16T14:18:56;20.83;;;16.90;;
59571;SDS011;59406;45.602;11.904;2022-10-16T14:21:35;22.87;;;19.50;;
59571;SDS011;59406;45.602;11.904;2022-10-16T14:26:58;31.10;;;23.40;;
59571;SDS011;59406;45.602;11.904;2022-10-16T14:29:27;25.45;;;19.70;;
59571;SDS011;59406;45.602;11.904;2022-10-16T14:32:05;29.00;;;22.77;;
59571;SDS011;59406;45.602;11.904;2022-10-16T14:34:52;26.77;;;19.77;;
59571;SDS011;59406;45.602;11.904;2022-10-16T14:37:25;28.25;;;21.90;;
59571;SDS011;59406;45.602;11.904;2022-10-16T14:39:53;22.73;;;17.08;;
59571;SDS011;59406;45.602;11.904;2022-10-16T14:42:22;22.20;;;17.08;;
59571;SDS011;59406;45.602;11.904;2022-10-16T14:44:50;19.08;;;15.20;;
59571;SDS011;59406;45.602;11.904;2022-10-16T14:47:24;31.37;;;24.53;;
59571;SDS011;59406;45.602;11.904;2022-10-16T14:49:52;23.30;;;17.17;;
59571;SDS011;59406;45.602;11.904;2022-10-16T14:52:24;32.38;;;23.67;;
59571;SDS011;59406;45.602;11.904;2022-10-16T14:54:50;20.55;;;16.48;;
59571;SDS011;59406;45.602;11.904;2022-10-16T14:57:23;22.20;;;17.50;;
59571;SDS011;59406;45.602;11.904;2022-10-16T14:59:53;28.50;;;22.70;;
59571;SDS011;59406;45.602;11.904;2022-10-16T15:04:48;27.02;;;19.98;;
59571;SDS011;59406;45.602;11.904;2022-10-16T15:07:14;21.73;;;16.85;;
59571;SDS011;59406;45.602;11.904;2022-10-16T15:09:40;18.03;;;13.67;;
59571;SDS011;59406;45.602;11.904;2022-10-16T15:12:07;17.40;;;13.18;;
59571;SDS011;59406;45.602;11.904;2022-10-16T15:14:33;20.73;;;15.73;;
59571;SDS011;59406;45.602;11.904;2022-10-16T15:16:59;24.85;;;18.85;;
59571;SDS011;59406;45.602;11.904;2022-10-16T15:19:25;22.63;;;16.13;;
59571;SDS011;59406;45.602;11.904;2022-10-16T15:21:51;29.43;;;21.77;;
59571;SDS011;59406;45.602;11.904;2022-10-16T15:24:17;23.85;;;16.98;;
59571;SDS011;59406;45.602;11.904;2022-10-16T15:26:43;20.67;;;15.18;;
59571;SDS011;59406;45.602;11.904;2022-10-16T15:29:11;23.08;;;15.60;;
59571;SDS011;59406;45.602;11.904;2022-10-16T15:31:38;18.50;;;12.60;;
59571;SDS011;59406;45.602;11.904;2022-10-16T15:34:08;23.55;;;17.88;;
59571;SDS011;59406;45.602;11.904;2022-10-16T15:36:36;19.02;;;13.25;;
59571;SDS011;59406;45.602;11.904;2022-10-16T15:39:03;21.40;;;16.02;;
59571;SDS011;59406;45.602;11.904;2022-10-16T15:41:41;19.75;;;14.90;;
59571;SDS011;59406;45.602;11.904;2022-10-16T15:44:08;17.50;;;12.43;;
59571;SDS011;59406;45.602;11.904;2022-10-16T15:46:34;19.55;;;14.45;;
59571;SDS011;59406;45.602;11.904;2022-10-16T15:49:01;18.27;;;12.88;;
59571;SDS011;59406;45.602;11.904;2022-10-16T15:51:27;17.98;;;12.77;;
59571;SDS011;59406;45.602;11.904;2022-10-16T15:53:57;18.50;;;12.73;;
59571;SDS011;59406;45.602;11.904;2022-10-16T15:56:27;17.60;;;12.13;;
59571;SDS011;59406;45.602;11.904;2022-10-16T15:58:54;16.55;;;12.45;;
59571;SDS011;59406;45.602;11.904;2022-10-16T16:01:20;17.50;;;12.55;;
59571;SDS011;59406;45.602;11.904;2022-10-16T16:03:47;24.85;;;17.27;;
59571;SDS011;59406;45.602;11.904;2022-10-16T16:06:13;23.75;;;16.85;;
59571;SDS011;59406;45.602;11.904;2022-10-16T16:08:40;26.33;;;17.93;;
59571;SDS011;59406;45.602;11.904;2022-10-16T16:11:07;19.67;;;13.35;;
59571;SDS011;59406;45.602;11.904;2022-10-16T16:13:35;21.95;;;16.00;;
59571;SDS011;59406;45.602;11.904;2022-10-16T16:16:10;19.55;;;13.77;;
59571;SDS011;59406;45.602;11.904;2022-10-16T16:18:38;17.70;;;13.10;;
59571;SDS011;59406;45.602;11.904;2022-10-16T16:21:05;19.30;;;14.10;;
59571;SDS011;59406;45.602;11.904;2022-10-16T16:23:32;17.98;;;12.77;;
59571;SDS011;59406;45.602;11.904;2022-10-16T16:26:09;20.25;;;13.75;;
59571;SDS011;59406;45.602;11.904;2022-10-16T16:28:39;18.23;;;12.25;;
59571;SDS011;59406;45.602;11.904;2022-10-16T16:31:06;18.98;;;13.40;;
59571;SDS011;59406;45.602;11.904;2022-10-16T16:33:32;18.50;;;12.67;;
59571;SDS011;59406;45.602;11.904;2022-10-16T16:35:59;21.42;;;14.18;;